createdAt,value
2019-01-10T00:00:47.555Z,98275.48
2019-01-10T00:03:13.705Z,98275.37
2019-01-10T00:05:40.052Z,98275.16
2019-01-10T00:08:06.315Z,98278.96
2019-01-10T00:10:32.489Z,98284.08
2019-01-10T00:12:58.676Z,98276.58
2019-01-10T00:15:24.827Z,98283.06
2019-01-10T00:17:50.988Z,98284.38
2019-01-10T00:20:17.373Z,98298.64
2019-01-10T00:22:43.952Z,98300.42
2019-01-10T00:25:12.229Z,98305.39
2019-01-10T00:27:38.418Z,98303.98
2019-01-10T00:30:08.183Z,98308.59
2019-01-10T00:32:34.451Z,98319.44
2019-01-10T00:35:00.632Z,98320.97
2019-01-10T00:37:26.779Z,98333.78
2019-01-10T00:39:53.037Z,98341.27
2019-01-10T00:42:19.337Z,98348.52
2019-01-10T00:44:45.600Z,98348.58
2019-01-10T00:47:11.862Z,98341.62
2019-01-10T00:49:38.147Z,98349.82
2019-01-10T00:52:04.403Z,98352.45
2019-01-10T00:54:36.737Z,98357.09
2019-01-10T00:57:02.934Z,98358.67
2019-01-10T00:59:29.100Z,98359.05
2019-01-10T01:01:55.362Z,98357.91
2019-01-10T01:04:21.563Z,98358.06
2019-01-10T01:06:48.047Z,98360.95
2019-01-10T01:09:14.304Z,98363.77
2019-01-10T01:11:40.492Z,98357.41
2019-01-10T01:14:06.645Z,98358.03
2019-01-10T01:16:32.901Z,98365.19
2019-01-10T01:18:59.093Z,98365.75
2019-01-10T01:21:25.252Z,98374.76
2019-01-10T01:23:51.411Z,98380.30
2019-01-10T01:26:17.616Z,98383.02
2019-01-10T01:28:43.871Z,98377.97
2019-01-10T01:31:10.027Z,98379.27
2019-01-10T01:33:36.213Z,98374.11
2019-01-10T01:36:02.478Z,98372.68
2019-01-10T01:38:28.632Z,98370.02
2019-01-10T01:40:54.823Z,98377.98
2019-01-10T01:43:20.971Z,98378.72
2019-01-10T01:45:47.231Z,98372.16
2019-01-10T01:48:13.458Z,98378.37
2019-01-10T01:50:39.616Z,98383.27
2019-01-10T01:53:05.774Z,98390.88
2019-01-10T01:55:32.807Z,98388.50
2019-01-10T01:57:58.967Z,98383.05
2019-01-10T02:00:25.235Z,98377.84
2019-01-10T02:02:51.627Z,98379.95
2019-01-10T02:05:17.789Z,98392.05
2019-01-10T02:07:43.934Z,98390.87
2019-01-10T02:10:18.944Z,98388.09
2019-01-10T02:12:45.098Z,98391.48
2019-01-10T02:15:11.559Z,98383.97
2019-01-10T02:17:37.861Z,98386.00
2019-01-10T02:20:06.813Z,98385.69
2019-01-10T02:22:33.466Z,98393.02
2019-01-10T02:24:59.669Z,98390.03
2019-01-10T02:27:25.818Z,98383.45
2019-01-10T02:29:52.092Z,98389.42
2019-01-10T02:32:18.292Z,98399.54
2019-01-10T02:34:44.451Z,98399.77
2019-01-10T02:37:10.705Z,98400.19
2019-01-10T02:39:36.885Z,98406.09
2019-01-10T02:42:03.047Z,98402.67
2019-01-10T02:44:29.231Z,98401.84
2019-01-10T02:46:55.376Z,98415.27
2019-01-10T02:49:21.634Z,98421.13
2019-01-10T02:51:47.805Z,98418.11
2019-01-10T02:54:14.006Z,98415.14
2019-01-10T02:56:40.208Z,98420.72
2019-01-10T02:59:06.456Z,98419.32
2019-01-10T03:01:32.645Z,98418.73
2019-01-10T03:03:58.801Z,98428.98
2019-01-10T03:06:24.968Z,98436.45
2019-01-10T03:08:51.247Z,98432.75
2019-01-10T03:11:17.398Z,98440.41
2019-01-10T03:13:43.568Z,98432.18
2019-01-10T03:16:09.763Z,98438.16
2019-01-10T03:18:35.928Z,98431.14
2019-01-10T03:21:02.192Z,98431.20
2019-01-10T03:23:28.395Z,98423.66
2019-01-10T03:25:54.551Z,98429.22
2019-01-10T03:28:20.701Z,98429.22
2019-01-10T03:30:47.004Z,98433.26
2019-01-10T03:33:13.150Z,98440.98
2019-01-10T03:35:39.303Z,98437.71
2019-01-10T03:38:05.485Z,98442.48
2019-01-10T03:40:31.749Z,98440.66
2019-01-10T03:42:57.918Z,98443.35
2019-01-10T03:45:24.214Z,98449.23
2019-01-10T03:47:50.366Z,98449.05
2019-01-10T03:50:16.721Z,98448.98
2019-01-10T03:52:42.937Z,98440.69
2019-01-10T03:55:09.287Z,98450.03
2019-01-10T03:57:35.682Z,98442.42
2019-01-10T04:00:04.464Z,98445.28
2019-01-10T04:02:30.729Z,98436.47
2019-01-10T04:04:56.881Z,98437.77
2019-01-10T04:07:23.491Z,98441.47
2019-01-10T04:09:49.646Z,98439.11
2019-01-10T04:12:15.919Z,98440.20
2019-01-10T04:14:42.097Z,98439.07
2019-01-10T04:17:08.375Z,98443.76
2019-01-10T04:19:34.620Z,98447.34
2019-01-10T04:22:00.922Z,98449.03
2019-01-10T04:24:27.085Z,98464.77
2019-01-10T04:26:53.250Z,98467.28
2019-01-10T04:29:19.443Z,98471.97
2019-01-10T04:31:45.601Z,98467.05
2019-01-10T04:34:11.756Z,98464.58
2019-01-10T04:36:38.040Z,98472.76
2019-01-10T04:39:06.004Z,98477.22
2019-01-10T04:41:32.172Z,98476.42
2019-01-10T04:44:06.725Z,98473.70
2019-01-10T04:46:26.441Z,98464.08
2019-01-10T04:48:52.616Z,98486.05
2019-01-10T04:51:18.904Z,98490.39
2019-01-10T04:53:45.060Z,98480.58
2019-01-10T04:56:11.222Z,98483.75
2019-01-10T04:58:37.539Z,98491.09
2019-01-10T05:01:03.803Z,98497.92
2019-01-10T05:03:29.969Z,98502.84
2019-01-10T05:05:56.157Z,98505.63
2019-01-10T05:08:22.420Z,98515.49
2019-01-10T05:10:48.693Z,98521.11
2019-01-10T05:13:14.893Z,98514.02
2019-01-10T05:15:41.053Z,98525.66
2019-01-10T05:18:08.198Z,98539.09
2019-01-10T05:20:36.516Z,98560.96
2019-01-10T05:23:04.596Z,98560.16
2019-01-10T05:25:30.757Z,98562.64
2019-01-10T05:27:56.949Z,98567.86
2019-01-10T05:30:23.619Z,98567.24
2019-01-10T05:32:49.998Z,98573.47
2019-01-10T05:35:16.296Z,98587.51
2019-01-10T05:37:42.456Z,98595.19
2019-01-10T05:40:10.734Z,98594.64
2019-01-10T05:42:37.033Z,98588.95
2019-01-10T05:45:06.409Z,98596.73
2019-01-10T05:47:32.581Z,98595.28
2019-01-10T05:49:58.884Z,98592.31
2019-01-10T05:52:25.152Z,98599.05
2019-01-10T05:54:51.411Z,98604.63
2019-01-10T05:57:17.718Z,98614.81
2019-01-10T05:59:44.023Z,98617.13
2019-01-10T06:02:10.291Z,98616.50
2019-01-10T06:04:36.492Z,98613.48
2019-01-10T06:07:02.760Z,98625.61
2019-01-10T06:09:28.915Z,98630.16
2019-01-10T06:11:55.225Z,98626.61
2019-01-10T06:14:21.402Z,98626.09
2019-01-10T06:16:47.669Z,98637.55
2019-01-10T06:19:13.973Z,98651.34
2019-01-10T06:21:40.238Z,98653.60
2019-01-10T06:24:06.500Z,98646.39
2019-01-10T06:26:32.791Z,98653.97
2019-01-10T06:28:58.964Z,98662.59
2019-01-10T06:31:25.123Z,98663.23
2019-01-10T06:33:51.528Z,98675.16
2019-01-10T06:36:17.694Z,98670.92
2019-01-10T06:38:43.971Z,98667.55
2019-01-10T06:41:10.275Z,98685.05
2019-01-10T06:43:36.434Z,98695.59
2019-01-10T06:46:02.908Z,98695.63
2019-01-10T06:48:29.212Z,98696.27
2019-01-10T06:50:55.490Z,98698.34
2019-01-10T06:53:21.796Z,98703.13
2019-01-10T06:55:48.105Z,98702.00
2019-01-10T06:58:14.376Z,98711.81
2019-01-10T07:00:40.708Z,98714.95
2019-01-10T07:03:07.022Z,98718.80
2019-01-10T07:05:33.182Z,98716.57
2019-01-10T07:07:59.662Z,98722.55
2019-01-10T07:10:28.777Z,98722.84
2019-01-10T07:12:54.600Z,98725.59
2019-01-10T07:15:20.859Z,98726.79
2019-01-10T07:17:47.059Z,98729.05
2019-01-10T07:20:13.340Z,98727.89
2019-01-10T07:22:45.165Z,98733.30
2019-01-10T07:25:11.350Z,98732.74
2019-01-10T07:27:37.600Z,98734.55
2019-01-10T07:30:06.655Z,98735.42
2019-01-10T07:32:32.848Z,98748.05
2019-01-10T07:34:59.149Z,98757.59
2019-01-10T07:37:25.305Z,98760.33
2019-01-10T07:39:51.500Z,98754.50
2019-01-10T07:42:17.755Z,98758.52
2019-01-10T07:44:43.918Z,98757.00
2019-01-10T07:47:10.216Z,98760.70
2019-01-10T07:49:36.483Z,98764.28
2019-01-10T07:52:02.943Z,98764.20
2019-01-10T07:54:29.147Z,98762.84
2019-01-10T07:56:55.308Z,98757.95
2019-01-10T07:59:21.466Z,98770.09
2019-01-10T08:01:47.738Z,98768.28
2019-01-10T08:04:13.913Z,98765.92
2019-01-10T08:06:40.186Z,98760.97
2019-01-10T08:09:07.682Z,98755.07
2019-01-10T08:11:35.151Z,98760.62
2019-01-10T08:14:01.423Z,98762.05
2019-01-10T08:16:27.612Z,98755.77
2019-01-10T08:18:53.863Z,98754.78
2019-01-10T08:21:20.114Z,98753.03
2019-01-10T08:23:46.313Z,98757.69
2019-01-10T08:26:12.590Z,98749.84
2019-01-10T08:28:38.752Z,98744.13
2019-01-10T08:31:05.066Z,98745.27
2019-01-10T08:33:31.267Z,98753.30
2019-01-10T08:35:57.424Z,98753.84
2019-01-10T08:38:23.615Z,98755.98
2019-01-10T08:40:49.902Z,98753.08
2019-01-10T08:43:16.063Z,98753.56
2019-01-10T08:45:42.378Z,98759.00
2019-01-10T08:48:08.526Z,98766.27
2019-01-10T08:50:34.801Z,98767.48
2019-01-10T08:53:00.999Z,98764.20
2019-01-10T08:55:27.355Z,98761.45
2019-01-10T08:57:53.534Z,98770.70
2019-01-10T09:00:20.224Z,98756.88
2019-01-10T09:02:46.452Z,98744.59
2019-01-10T09:05:12.732Z,98735.72
2019-01-10T09:07:39.021Z,98740.69
2019-01-10T09:10:08.875Z,98736.68
2019-01-10T09:12:35.045Z,98738.34
2019-01-10T09:15:01.265Z,98735.33
2019-01-10T09:17:27.438Z,98732.56
2019-01-10T09:19:53.921Z,98737.55
2019-01-10T09:22:20.114Z,98728.36
2019-01-10T09:24:46.264Z,98717.50
2019-01-10T09:27:12.426Z,98729.10
2019-01-10T09:29:38.627Z,98725.67
2019-01-10T09:32:04.786Z,98717.92
2019-01-10T09:34:30.952Z,98716.02
2019-01-10T09:36:57.232Z,98715.12
2019-01-10T09:39:23.390Z,98713.33
2019-01-10T09:41:49.654Z,98718.16
2019-01-10T09:44:15.864Z,98711.52
2019-01-10T09:46:42.122Z,98720.03
2019-01-10T09:49:08.371Z,98727.86
2019-01-10T09:51:34.567Z,98718.58
2019-01-10T09:54:00.817Z,98712.52
2019-01-10T09:56:26.968Z,98710.97
2019-01-10T09:58:53.263Z,98712.13
2019-01-10T10:01:19.539Z,98703.27
2019-01-10T10:03:45.705Z,98708.38
2019-01-10T10:06:12.027Z,98700.79
2019-01-10T10:08:38.535Z,98704.34
2019-01-10T10:11:04.684Z,98696.48
2019-01-10T10:13:30.883Z,98698.53
2019-01-10T10:15:57.045Z,98696.25
2019-01-10T10:18:23.208Z,98692.39
2019-01-10T10:20:49.502Z,98692.59
2019-01-10T10:23:15.753Z,98686.47
2019-01-10T10:25:41.916Z,98697.98
2019-01-10T10:28:08.109Z,98687.64
2019-01-10T10:30:34.280Z,98695.11
2019-01-10T10:33:00.422Z,98699.71
2019-01-10T10:35:26.612Z,98688.84
2019-01-10T10:37:52.767Z,98691.09
2019-01-10T10:40:19.230Z,98704.08
2019-01-10T10:42:46.544Z,98703.86
2019-01-10T10:45:15.031Z,98693.88
2019-01-10T10:47:41.296Z,98694.03
2019-01-10T10:50:11.091Z,98691.78
2019-01-10T10:52:37.264Z,98696.00
2019-01-10T10:55:04.721Z,98712.41
2019-01-10T10:57:31.019Z,98718.88
2019-01-10T10:59:57.173Z,98705.77
2019-01-10T11:02:23.342Z,98700.35
2019-01-10T11:04:49.574Z,98695.47
2019-01-10T11:07:15.844Z,98686.33
2019-01-10T11:09:42.007Z,98689.64
2019-01-10T11:12:08.320Z,98684.03
2019-01-10T11:14:34.595Z,98682.18
2019-01-10T11:17:00.752Z,98677.64
2019-01-10T11:19:30.102Z,98683.55
2019-01-10T11:21:56.264Z,98689.70
2019-01-10T11:24:24.377Z,98695.75
2019-01-10T11:26:50.557Z,98703.16
2019-01-10T11:29:16.821Z,98699.01
2019-01-10T11:31:42.991Z,98691.41
2019-01-10T11:34:09.237Z,98692.94
2019-01-10T11:36:35.388Z,98689.52
2019-01-10T11:39:01.544Z,98680.71
2019-01-10T11:41:27.760Z,98672.77
2019-01-10T11:43:53.923Z,98682.87
2019-01-10T11:46:20.164Z,98698.03
2019-01-10T11:48:46.489Z,98685.54
2019-01-10T11:51:12.687Z,98675.20
2019-01-10T11:53:38.902Z,98676.56
2019-01-10T11:56:05.096Z,98680.83
2019-01-10T11:58:31.256Z,98671.77
2019-01-10T12:00:57.514Z,98676.34
2019-01-10T12:03:23.841Z,98664.23
2019-01-10T12:05:52.934Z,98664.52
2019-01-10T12:08:18.074Z,98661.13
2019-01-10T12:10:44.276Z,98659.02
2019-01-10T12:13:10.445Z,98661.50
2019-01-10T12:15:36.627Z,98661.20
2019-01-10T12:18:03.419Z,98672.62
2019-01-10T12:20:29.584Z,98692.47
2019-01-10T12:22:55.735Z,98690.74
2019-01-10T12:25:21.925Z,98679.03
2019-01-10T12:27:48.177Z,98669.14
2019-01-10T12:30:20.690Z,98669.53
2019-01-10T12:32:46.882Z,98678.47
2019-01-10T12:35:13.164Z,98683.59
2019-01-10T12:37:39.323Z,98696.23
2019-01-10T12:40:13.647Z,98689.75
2019-01-10T12:42:39.808Z,98672.34
2019-01-10T12:45:09.364Z,98663.16
2019-01-10T12:47:35.548Z,98674.37
2019-01-10T12:50:01.911Z,98693.91
2019-01-10T12:52:35.114Z,98684.20
2019-01-10T12:54:56.181Z,98687.98
2019-01-10T12:57:23.225Z,98685.63
2019-01-10T12:59:49.393Z,98681.41
2019-01-10T13:02:15.601Z,98680.68
2019-01-10T13:04:41.761Z,98673.86
2019-01-10T13:07:07.949Z,98672.38
2019-01-10T13:09:34.483Z,98666.14
2019-01-10T13:12:05.472Z,98666.17
2019-01-10T13:14:31.638Z,98664.80
2019-01-10T13:16:58.254Z,98661.56
2019-01-10T13:19:24.518Z,98657.91
2019-01-10T13:21:50.772Z,98647.38
2019-01-10T13:24:17.068Z,98644.48
2019-01-10T13:26:45.619Z,98639.19
2019-01-10T13:29:11.663Z,98625.11
2019-01-10T13:31:37.871Z,98638.41
2019-01-10T13:34:04.320Z,98650.20
2019-01-10T13:36:33.837Z,98651.28
2019-01-10T13:39:00.121Z,98647.70
2019-01-10T13:41:26.276Z,98648.80
2019-01-10T13:43:52.530Z,98655.77
2019-01-10T13:46:18.818Z,98663.39
2019-01-10T13:48:51.367Z,98659.23
2019-01-10T13:51:18.053Z,98647.30
2019-01-10T13:53:46.164Z,98640.27
2019-01-10T13:56:12.328Z,98643.42
2019-01-10T13:58:38.481Z,98637.61
2019-01-10T14:03:33.203Z,98638.98
2019-01-10T14:05:59.848Z,98638.55
2019-01-10T14:08:26.155Z,98640.66
2019-01-10T14:10:52.329Z,98642.76
2019-01-10T14:13:18.589Z,98632.89
2019-01-10T14:15:44.941Z,98636.51
2019-01-10T14:18:11.103Z,98621.28
2019-01-10T14:20:37.279Z,98622.05
2019-01-10T14:23:04.158Z,98614.60
2019-01-10T14:25:30.421Z,98616.36
2019-01-10T14:28:00.028Z,98612.98
2019-01-10T14:30:31.915Z,98612.66
2019-01-10T14:32:58.172Z,98612.77
2019-01-10T14:35:24.437Z,98610.42
2019-01-10T14:37:50.634Z,98615.33
2019-01-10T14:40:17.683Z,98624.58
2019-01-10T14:42:43.860Z,98614.66
2019-01-10T14:45:13.056Z,98612.96
2019-01-10T14:47:39.328Z,98610.12
2019-01-10T14:50:08.117Z,98603.16
2019-01-10T14:52:36.248Z,98591.48
2019-01-10T14:55:05.209Z,98584.36
2019-01-10T14:57:34.328Z,98580.52
2019-01-10T15:00:00.622Z,98574.15
2019-01-10T15:02:26.780Z,98584.08
2019-01-10T15:04:52.962Z,98601.42
2019-01-10T15:07:19.162Z,98601.91
2019-01-10T15:09:45.330Z,98613.92
2019-01-10T15:12:11.851Z,98622.75
2019-01-10T15:14:38.062Z,98619.62
2019-01-10T15:17:04.223Z,98612.88
2019-01-10T15:19:30.406Z,98603.17
2019-01-10T15:21:56.587Z,98598.08
2019-01-10T15:24:22.740Z,98603.46
2019-01-10T15:26:48.919Z,98592.44
2019-01-10T15:29:15.217Z,98597.94
2019-01-10T15:31:41.413Z,98591.98
2019-01-10T15:34:07.571Z,98589.36
2019-01-10T15:36:33.760Z,98590.73
2019-01-10T15:39:00.027Z,98586.18
2019-01-10T15:41:26.300Z,98587.88
2019-01-10T15:43:52.638Z,98593.30
2019-01-10T15:46:18.858Z,98601.69
2019-01-10T15:48:45.018Z,98598.41
2019-01-10T15:51:11.216Z,98587.86
2019-01-10T15:53:37.481Z,98583.19
2019-01-10T15:56:03.851Z,98574.11
2019-01-10T15:58:30.109Z,98570.64
2019-01-10T16:00:56.231Z,98559.72
2019-01-10T16:03:22.502Z,98553.48
2019-01-10T16:05:48.818Z,98551.22
2019-01-10T16:08:15.096Z,98547.22
2019-01-10T16:10:41.564Z,98549.56
2019-01-10T16:13:07.856Z,98554.03
2019-01-10T16:15:34.114Z,98552.38
2019-01-10T16:18:00.676Z,98545.63
2019-01-10T16:20:26.895Z,98559.82
2019-01-10T16:22:53.148Z,98538.78
2019-01-10T16:25:19.787Z,98527.19
2019-01-10T16:27:46.749Z,98547.36
2019-01-10T16:30:21.505Z,98544.05
2019-01-10T16:32:48.615Z,98532.34
2019-01-10T16:35:14.869Z,98541.37
2019-01-10T16:37:41.025Z,98538.07
2019-01-10T16:40:11.834Z,98519.63
2019-01-10T16:42:37.989Z,98514.80
2019-01-10T16:45:10.649Z,98534.45
2019-01-10T16:47:36.834Z,98521.84
2019-01-10T16:50:06.396Z,98532.50
2019-01-10T16:52:32.561Z,98506.54
2019-01-10T16:54:58.738Z,98512.19
2019-01-10T16:57:25.008Z,98532.81
2019-01-10T16:59:51.267Z,98538.61
2019-01-10T17:02:17.556Z,98542.91
2019-01-10T17:04:43.702Z,98540.52
2019-01-10T17:07:09.876Z,98539.27
2019-01-10T17:09:36.123Z,98538.34
2019-01-10T17:12:03.004Z,98527.98
2019-01-10T17:14:29.171Z,98536.44
2019-01-10T17:16:55.360Z,98537.16
2019-01-10T17:19:21.556Z,98522.13
2019-01-10T17:21:47.723Z,98525.72
2019-01-10T17:24:13.923Z,98528.42
2019-01-10T17:26:40.079Z,98519.77
2019-01-10T17:29:07.300Z,98519.77
2019-01-10T17:31:33.500Z,98514.22
2019-01-10T17:33:59.770Z,98525.99
2019-01-10T17:36:26.093Z,98527.97
2019-01-10T17:38:52.283Z,98536.38
2019-01-10T17:41:18.437Z,98530.41
2019-01-10T17:43:44.595Z,98531.61
2019-01-10T17:46:10.791Z,98542.26
2019-01-10T17:48:36.953Z,98553.69
2019-01-10T17:51:03.889Z,98558.59
2019-01-10T17:53:30.418Z,98566.02
2019-01-10T17:55:56.574Z,98581.19
2019-01-10T17:58:22.726Z,98583.87
2019-01-10T18:00:49.973Z,98582.75
2019-01-10T18:03:16.261Z,98574.95
2019-01-10T18:05:42.415Z,98586.83
2019-01-10T18:08:08.617Z,98593.22
2019-01-10T18:10:34.769Z,98595.44
2019-01-10T18:13:00.924Z,98618.78
2019-01-10T18:15:27.249Z,98616.89
2019-01-10T18:17:53.406Z,98624.30
2019-01-10T18:20:28.602Z,98639.83
2019-01-10T18:22:54.788Z,98656.74
2019-01-10T18:25:20.948Z,98656.03
2019-01-10T18:27:47.110Z,98665.05
2019-01-10T18:30:17.159Z,98654.77
2019-01-10T18:32:43.354Z,98631.05
2019-01-10T18:35:10.061Z,98607.51
2019-01-10T18:37:36.244Z,98604.69
2019-01-10T18:40:04.566Z,98605.17
2019-01-10T18:42:30.776Z,98615.20
2019-01-10T18:44:56.985Z,98614.28
2019-01-10T18:47:23.216Z,98637.34
2019-01-10T18:49:49.381Z,98644.87
2019-01-10T18:52:15.561Z,98659.77
2019-01-10T18:54:41.738Z,98632.93
2019-01-10T18:57:07.993Z,98640.23
2019-01-10T18:59:35.546Z,98653.05
2019-01-10T19:02:01.859Z,98641.05
2019-01-10T19:04:28.359Z,98647.80
2019-01-10T19:07:00.801Z,98653.22
2019-01-10T19:09:32.067Z,98653.84
2019-01-10T19:12:00.293Z,98653.22
2019-01-10T19:14:26.537Z,98659.93
2019-01-10T19:16:52.699Z,98678.39
2019-01-10T19:19:18.955Z,98686.08
2019-01-10T19:21:49.834Z,98688.67
2019-01-10T19:24:16.300Z,98682.33
2019-01-10T19:26:42.555Z,98686.72
2019-01-10T19:29:08.852Z,98677.22
2019-01-10T19:31:35.115Z,98685.91
2019-01-10T19:34:01.275Z,98682.39
2019-01-10T19:36:27.673Z,98689.69
2019-01-10T19:38:53.816Z,98707.67
2019-01-10T19:41:19.963Z,98718.16
2019-01-10T19:43:46.144Z,98720.13
2019-01-10T19:46:25.663Z,98728.24
2019-01-10T19:48:43.285Z,98721.94
2019-01-10T19:51:09.474Z,98711.69
2019-01-10T19:53:35.733Z,98712.33
2019-01-10T19:56:01.891Z,98704.02
2019-01-10T19:58:28.079Z,98690.16
2019-01-10T20:00:54.242Z,98680.27
2019-01-10T20:03:21.151Z,98682.39
2019-01-10T20:05:47.383Z,98688.39
2019-01-10T20:08:13.546Z,98685.19
2019-01-10T20:10:39.795Z,98680.63
2019-01-10T20:13:05.987Z,98694.27
2019-01-10T20:15:32.249Z,98695.38
2019-01-10T20:17:58.907Z,98683.56
2019-01-10T20:20:28.095Z,98680.73
2019-01-10T20:22:54.254Z,98686.56
2019-01-10T20:25:20.521Z,98687.34
2019-01-10T20:27:46.811Z,98689.68
2019-01-10T20:30:16.566Z,98716.97
2019-01-10T20:32:42.823Z,98701.35
2019-01-10T20:35:09.487Z,98710.69
2019-01-10T20:37:35.655Z,98704.17
2019-01-10T20:40:03.225Z,98693.45
2019-01-10T20:42:29.409Z,98696.04
2019-01-10T20:44:55.573Z,98708.16
2019-01-10T20:47:21.828Z,98713.28
2019-01-10T20:49:48.023Z,98702.83
2019-01-10T20:52:14.181Z,98693.17
2019-01-10T20:54:40.339Z,98707.81
2019-01-10T20:57:06.536Z,98712.61
2019-01-10T20:59:32.695Z,98719.77
2019-01-10T21:01:58.859Z,98725.55
2019-01-10T21:04:25.153Z,98733.78
2019-01-10T21:06:51.307Z,98713.62
2019-01-10T21:12:02.623Z,98711.02
2019-01-10T21:14:28.795Z,98722.78
2019-01-10T21:16:54.953Z,98732.79
2019-01-10T21:19:21.260Z,98745.59
2019-01-10T21:21:49.213Z,98728.89
2019-01-10T21:24:15.514Z,98733.17
2019-01-10T21:26:42.040Z,98742.45
2019-01-10T21:29:08.210Z,98727.20
2019-01-10T21:31:34.666Z,98726.00
2019-01-10T21:34:00.924Z,98748.20
2019-01-10T21:36:27.262Z,98751.07
2019-01-10T21:38:53.894Z,98739.54
2019-01-10T21:41:20.046Z,98741.38
2019-01-10T21:43:46.204Z,98762.69
2019-01-10T21:46:12.362Z,98766.86
2019-01-10T21:48:38.651Z,98777.95
2019-01-10T21:51:04.808Z,98780.00
2019-01-10T21:53:31.066Z,98773.02
2019-01-10T21:55:57.364Z,98759.89
2019-01-10T21:58:23.633Z,98767.52
2019-01-10T22:00:49.888Z,98767.14
2019-01-10T22:03:16.279Z,98750.35
2019-01-10T22:05:42.435Z,98757.80
2019-01-10T22:08:08.692Z,98759.19
2019-01-10T22:10:34.880Z,98743.84
2019-01-10T22:13:01.360Z,98735.91
2019-01-10T22:15:27.626Z,98742.06
2019-01-10T22:17:53.814Z,98744.97
2019-01-10T22:20:21.869Z,98756.09
2019-01-10T22:22:48.020Z,98770.41
2019-01-10T22:25:14.522Z,98761.42
2019-01-10T22:27:40.780Z,98761.69
2019-01-10T22:30:10.311Z,98779.61
2019-01-10T22:32:36.615Z,98785.64
2019-01-10T22:35:05.977Z,98788.45
2019-01-10T22:37:32.240Z,98783.66
2019-01-10T22:39:59.429Z,98789.49
2019-01-10T22:42:25.579Z,98788.34
2019-01-10T22:44:51.833Z,98804.14
2019-01-10T22:47:18.023Z,98811.44
2019-01-10T22:49:44.182Z,98819.28
2019-01-10T22:52:10.333Z,98825.94
2019-01-10T22:54:36.530Z,98824.75
2019-01-10T22:57:02.675Z,98821.21
2019-01-10T22:59:28.934Z,98819.71
2019-01-10T23:01:56.055Z,98814.34
2019-01-10T23:04:27.234Z,98822.92
2019-01-10T23:06:53.404Z,98835.23
2019-01-10T23:09:19.715Z,98829.88
2019-01-10T23:11:45.888Z,98828.20
2019-01-10T23:14:12.046Z,98820.61
2019-01-10T23:16:38.235Z,98824.36
2019-01-10T23:19:04.999Z,98825.08
2019-01-10T23:21:31.152Z,98831.56
2019-01-10T23:23:59.235Z,98853.20
2019-01-10T23:26:25.399Z,98875.19
2019-01-10T23:28:51.562Z,98868.98
2019-01-10T23:31:20.243Z,98869.69
2019-01-10T23:33:46.401Z,98878.67
2019-01-10T23:36:12.660Z,98873.84
2019-01-10T23:38:38.840Z,98866.52
2019-01-10T23:41:05.000Z,98864.36
2019-01-10T23:43:31.157Z,98865.68
2019-01-10T23:45:57.345Z,98881.12
2019-01-10T23:48:24.004Z,98885.65
2019-01-10T23:50:50.158Z,98888.51
2019-01-10T23:53:16.341Z,98893.17
2019-01-10T23:55:42.897Z,98903.98
2019-01-10T23:58:09.046Z,98911.98
